sensor_id;sensor_type;location;lat;lon;timestamp;temperature;humidity
13440;DHT22;6792;57.698;11.946;2024-01-15T00:00:14;8.70;53.40
13440;DHT22;6792;57.698;11.946;2024-01-15T00:02:43;8.70;53.40
13440;DHT22;6792;57.698;11.946;2024-01-15T00:05:12;8.70;53.40
13440;DHT22;6792;57.698;11.946;2024-01-15T00:07:41;8.70;53.40
13440;DHT22;6792;57.698;11.946;2024-01-15T00:10:10;8.70;53.40
13440;DHT22;6792;57.698;11.946;2024-01-15T00:12:39;8.70;53.40
13440;DHT22;6792;57.698;11.946;2024-01-15T00:15:10;8.70;53.40
13440;DHT22;6792;57.698;11.946;2024-01-15T00:17:39;8.70;53.40
13440;DHT22;6792;57.698;11.946;2024-01-15T00:20:10;8.70;53.40
13440;DHT22;6792;57.698;11.946;2024-01-15T00:22:39;8.70;53.40
13440;DHT22;6792;57.698;11.946;2024-01-15T00:25:14;8.70;53.40
13440;DHT22;6792;57.698;11.946;2024-01-15T00:27:43;8.70;53.40
13440;DHT22;6792;57.698;11.946;2024-01-15T00:30:14;8.70;53.50
13440;DHT22;6792;57.698;11.946;2024-01-15T00:32:43;8.70;53.50
13440;DHT22;6792;57.698;11.946;2024-01-15T00:35:12;8.70;53.50
13440;DHT22;6792;57.698;11.946;2024-01-15T00:37:41;8.70;53.50
13440;DHT22;6792;57.698;11.946;2024-01-15T00:40:11;8.70;53.50
13440;DHT22;6792;57.698;11.946;2024-01-15T00:42:40;8.70;53.40
13440;DHT22;6792;57.698;11.946;2024-01-15T00:45:10;8.60;53.50
13440;DHT22;6792;57.698;11.946;2024-01-15T00:47:39;8.70;53.60
13440;DHT22;6792;57.698;11.946;2024-01-15T00:50:10;8.60;53.50
13440;DHT22;6792;57.698;11.946;2024-01-15T00:52:39;8.60;53.40
13440;DHT22;6792;57.698;11.946;2024-01-15T00:55:09;8.60;53.50
13440;DHT22;6792;57.698;11.946;2024-01-15T00:57:38;8.60;53.60
13440;DHT22;6792;57.698;11.946;2024-01-15T01:00:10;8.60;53.50
13440;DHT22;6792;57.698;11.946;2024-01-15T01:02:40;8.60;53.50
13440;DHT22;6792;57.698;11.946;2024-01-15T01:05:10;8.60;53.40
13440;DHT22;6792;57.698;11.946;2024-01-15T01:07:41;8.50;53.50
13440;DHT22;6792;57.698;11.946;2024-01-15T01:10:10;8.50;53.50
13440;DHT22;6792;57.698;11.946;2024-01-15T01:12:39;8.50;53.50
13440;DHT22;6792;57.698;11.946;2024-01-15T01:15:09;8.50;53.30
13440;DHT22;6792;57.698;11.946;2024-01-15T01:17:38;8.50;53.40
13440;DHT22;6792;57.698;11.946;2024-01-15T01:20:09;8.50;53.50
13440;DHT22;6792;57.698;11.946;2024-01-15T01:22:38;8.50;53.50
13440;DHT22;6792;57.698;11.946;2024-01-15T01:25:08;8.50;53.50
13440;DHT22;6792;57.698;11.946;2024-01-15T01:27:37;8.60;53.50
13440;DHT22;6792;57.698;11.946;2024-01-15T01:30:08;8.60;53.50
13440;DHT22;6792;57.698;11.946;2024-01-15T01:32:37;8.60;53.50
13440;DHT22;6792;57.698;11.946;2024-01-15T01:35:13;8.60;53.50
13440;DHT22;6792;57.698;11.946;2024-01-15T01:37:42;8.60;53.60
13440;DHT22;6792;57.698;11.946;2024-01-15T01:40:12;8.50;53.50
13440;DHT22;6792;57.698;11.946;2024-01-15T01:42:41;8.50;53.50
13440;DHT22;6792;57.698;11.946;2024-01-15T01:45:12;8.50;53.50
13440;DHT22;6792;57.698;11.946;2024-01-15T01:47:42;8.50;52.90
13440;DHT22;6792;57.698;11.946;2024-01-15T01:50:11;8.50;53.40
13440;DHT22;6792;57.698;11.946;2024-01-15T01:52:41;8.50;53.40
13440;DHT22;6792;57.698;11.946;2024-01-15T01:55:12;8.60;53.50
13440;DHT22;6792;57.698;11.946;2024-01-15T01:57:42;8.60;53.40
13440;DHT22;6792;57.698;11.946;2024-01-15T02:00:14;8.60;53.40
13440;DHT22;6792;57.698;11.946;2024-01-15T02:02:44;8.60;53.40
13440;DHT22;6792;57.698;11.946;2024-01-15T02:05:18;8.60;53.30
13440;DHT22;6792;57.698;11.946;2024-01-15T02:07:47;8.60;53.20
13440;DHT22;6792;57.698;11.946;2024-01-15T02:10:16;8.50;53.20
13440;DHT22;6792;57.698;11.946;2024-01-15T02:12:45;8.40;53.00
13440;DHT22;6792;57.698;11.946;2024-01-15T02:15:16;8.30;52.90
13440;DHT22;6792;57.698;11.946;2024-01-15T02:18:02;8.20;52.90
13440;DHT22;6792;57.698;11.946;2024-01-15T02:20:32;8.10;52.80
13440;DHT22;6792;57.698;11.946;2024-01-15T02:23:10;7.90;52.90
13440;DHT22;6792;57.698;11.946;2024-01-15T02:28:20;7.80;52.30
13440;DHT22;6792;57.698;11.946;2024-01-15T02:30:49;7.70;52.80
13440;DHT22;6792;57.698;11.946;2024-01-15T02:33:18;7.70;53.30
13440;DHT22;6792;57.698;11.946;2024-01-15T02:35:48;7.60;52.50
13440;DHT22;6792;57.698;11.946;2024-01-15T02:38:18;7.50;52.40
13440;DHT22;6792;57.698;11.946;2024-01-15T02:40:47;7.40;52.40
13440;DHT22;6792;57.698;11.946;2024-01-15T02:43:16;7.40;52.40
13440;DHT22;6792;57.698;11.946;2024-01-15T02:45:46;7.30;52.40
13440;DHT22;6792;57.698;11.946;2024-01-15T02:48:16;7.20;52.40
13440;DHT22;6792;57.698;11.946;2024-01-15T02:50:45;7.20;52.30
13440;DHT22;6792;57.698;11.946;2024-01-15T02:53:14;7.10;52.20
13440;DHT22;6792;57.698;11.946;2024-01-15T02:55:43;7.00;52.20
13440;DHT22;6792;57.698;11.946;2024-01-15T02:58:12;7.00;52.20
13440;DHT22;6792;57.698;11.946;2024-01-15T03:00:41;6.80;52.20
13440;DHT22;6792;57.698;11.946;2024-01-15T03:03:11;6.70;52.20
13440;DHT22;6792;57.698;11.946;2024-01-15T03:05:40;6.70;52.20
13440;DHT22;6792;57.698;11.946;2024-01-15T03:08:12;6.60;52.20
13440;DHT22;6792;57.698;11.946;2024-01-15T03:10:41;6.50;51.60
13440;DHT22;6792;57.698;11.946;2024-01-15T03:13:11;6.50;52.20
13440;DHT22;6792;57.698;11.946;2024-01-15T03:15:40;6.50;52.70
13440;DHT22;6792;57.698;11.946;2024-01-15T03:18:09;6.50;52.20
13440;DHT22;6792;57.698;11.946;2024-01-15T03:20:38;6.50;52.30
13440;DHT22;6792;57.698;11.946;2024-01-15T03:23:07;6.40;52.30
13440;DHT22;6792;57.698;11.946;2024-01-15T03:25:36;6.40;52.20
13440;DHT22;6792;57.698;11.946;2024-01-15T03:28:06;6.40;52.10
13440;DHT22;6792;57.698;11.946;2024-01-15T03:30:35;6.30;52.20
13440;DHT22;6792;57.698;11.946;2024-01-15T03:33:05;6.30;52.10
13440;DHT22;6792;57.698;11.946;2024-01-15T03:35:34;6.30;52.50
13440;DHT22;6792;57.698;11.946;2024-01-15T03:38:04;6.20;51.90
13440;DHT22;6792;57.698;11.946;2024-01-15T03:40:33;6.20;52.60
13440;DHT22;6792;57.698;11.946;2024-01-15T03:43:02;6.10;52.00
13440;DHT22;6792;57.698;11.946;2024-01-15T03:45:31;6.00;51.90
13440;DHT22;6792;57.698;11.946;2024-01-15T03:48:00;6.00;52.00
13440;DHT22;6792;57.698;11.946;2024-01-15T03:50:29;5.90;52.00
13440;DHT22;6792;57.698;11.946;2024-01-15T03:52:58;5.90;52.10
13440;DHT22;6792;57.698;11.946;2024-01-15T03:55:27;5.80;52.10
13440;DHT22;6792;57.698;11.946;2024-01-15T03:57:56;5.80;52.10
13440;DHT22;6792;57.698;11.946;2024-01-15T04:00:25;5.70;52.00
13440;DHT22;6792;57.698;11.946;2024-01-15T04:02:54;5.70;52.10
13440;DHT22;6792;57.698;11.946;2024-01-15T04:05:23;5.60;52.10
13440;DHT22;6792;57.698;11.946;2024-01-15T04:07:52;5.60;52.10
13440;DHT22;6792;57.698;11.946;2024-01-15T04:10:21;5.60;52.10
13440;DHT22;6792;57.698;11.946;2024-01-15T04:12:50;5.60;52.10
13440;DHT22;6792;57.698;11.946;2024-01-15T04:15:19;5.50;52.00
13440;DHT22;6792;57.698;11.946;2024-01-15T04:17:48;5.50;52.10
13440;DHT22;6792;57.698;11.946;2024-01-15T04:20:17;5.40;52.20
13440;DHT22;6792;57.698;11.946;2024-01-15T04:22:46;5.40;52.10
13440;DHT22;6792;57.698;11.946;2024-01-15T04:25:15;5.40;52.20
13440;DHT22;6792;57.698;11.946;2024-01-15T04:27:44;5.40;52.10
13440;DHT22;6792;57.698;11.946;2024-01-15T04:30:14;5.40;52.00
13440;DHT22;6792;57.698;11.946;2024-01-15T04:32:43;5.40;52.00
13440;DHT22;6792;57.698;11.946;2024-01-15T04:35:13;5.40;52.00
13440;DHT22;6792;57.698;11.946;2024-01-15T04:37:42;5.30;51.90
13440;DHT22;6792;57.698;11.946;2024-01-15T04:40:13;5.30;52.00
13440;DHT22;6792;57.698;11.946;2024-01-15T04:42:42;5.20;51.90
13440;DHT22;6792;57.698;11.946;2024-01-15T04:45:13;5.20;52.00
13440;DHT22;6792;57.698;11.946;2024-01-15T04:47:42;5.10;52.00
13440;DHT22;6792;57.698;11.946;2024-01-15T04:50:11;5.00;52.00
13440;DHT22;6792;57.698;11.946;2024-01-15T04:52:40;5.00;52.00
13440;DHT22;6792;57.698;11.946;2024-01-15T04:55:12;5.00;52.00
13440;DHT22;6792;57.698;11.946;2024-01-15T04:57:42;5.00;52.00
13440;DHT22;6792;57.698;11.946;2024-01-15T05:00:13;5.00;52.10
13440;DHT22;6792;57.698;11.946;2024-01-15T05:02:42;4.90;52.10
13440;DHT22;6792;57.698;11.946;2024-01-15T05:05:12;4.90;52.00
13440;DHT22;6792;57.698;11.946;2024-01-15T05:07:41;4.90;52.00
13440;DHT22;6792;57.698;11.946;2024-01-15T05:10:10;4.90;52.00
13440;DHT22;6792;57.698;11.946;2024-01-15T05:12:39;4.90;52.00
13440;DHT22;6792;57.698;11.946;2024-01-15T05:15:09;4.80;51.90
13440;DHT22;6792;57.698;11.946;2024-01-15T05:17:38;4.90;51.90
13440;DHT22;6792;57.698;11.946;2024-01-15T05:20:09;4.90;51.90
13440;DHT22;6792;57.698;11.946;2024-01-15T05:22:39;4.90;51.90
13440;DHT22;6792;57.698;11.946;2024-01-15T05:25:12;4.80;51.80
13440;DHT22;6792;57.698;11.946;2024-01-15T05:27:42;4.80;51.80
13440;DHT22;6792;57.698;11.946;2024-01-15T05:30:14;4.80;51.70
13440;DHT22;6792;57.698;11.946;2024-01-15T05:32:44;4.80;51.70
13440;DHT22;6792;57.698;11.946;2024-01-15T05:35:13;4.70;51.60
13440;DHT22;6792;57.698;11.946;2024-01-15T05:37:44;4.70;51.60
13440;DHT22;6792;57.698;11.946;2024-01-15T05:40:14;4.70;51.60
13440;DHT22;6792;57.698;11.946;2024-01-15T05:42:44;4.70;51.60
13440;DHT22;6792;57.698;11.946;2024-01-15T05:45:13;4.70;51.60
13440;DHT22;6792;57.698;11.946;2024-01-15T05:47:42;4.70;51.60
13440;DHT22;6792;57.698;11.946;2024-01-15T05:50:12;4.70;51.50
13440;DHT22;6792;57.698;11.946;2024-01-15T05:52:41;4.70;51.50
13440;DHT22;6792;57.698;11.946;2024-01-15T05:55:13;4.70;51.50
13440;DHT22;6792;57.698;11.946;2024-01-15T05:57:42;4.60;51.40
13440;DHT22;6792;57.698;11.946;2024-01-15T06:00:14;4.60;51.40
13440;DHT22;6792;57.698;11.946;2024-01-15T06:02:43;4.60;51.40
13440;DHT22;6792;57.698;11.946;2024-01-15T06:05:13;4.60;51.40
13440;DHT22;6792;57.698;11.946;2024-01-15T06:07:42;4.60;51.40
